Time;durP1;ratioP1;P1;durP2;ratioP2;P2;SDS_P1;SDS_P2;PMS_P1;PMS_P2;Temp;Humidity;BMP_temperature;BMP_pressure;BME280_temperature;BME280_humidity;BME280_pressure;Samples;Min_cycle;Max_cycle;Signal;HPM_P1;HPM_P2
2023/10/06 00:02:07;;;;;;;;;5.33;5.33;;;;;15.35;76.13;102337.69;4988911;28;9182;-71
2023/10/06 00:04:41;;;;;;;;;6.00;3.00;;;;;15.30;76.42;102340.97;4989857;28;9245;-71
2023/10/06 00:07:08;;;;;;;;;8.00;4.00;;;;;15.31;76.30;102337.25;4988498;28;9154;-71
2023/10/06 00:09:35;;;;;;;;;3.00;3.00;;;;;15.35;76.55;102337.69;4990015;28;9333;-71
2023/10/06 00:12:05;;;;;;;;;6.00;6.00;;;;;15.32;75.99;102328.09;4989234;28;9348;-71
2023/10/06 00:14:41;;;;;;;;;7.67;5.00;;;;;15.29;76.53;102331.16;4972604;28;9178;-71
2023/10/06 00:17:17;;;;;;;;;2.00;2.00;;;;;15.31;76.54;102326.41;4988791;28;9936;-71
2023/10/06 00:19:45;;;;;;;;;9.00;7.00;;;;;15.29;76.78;102328.47;4988371;28;9124;-71
2023/10/06 00:24:42;;;;;;;;;5.33;5.33;;;;;15.23;77.00;102326.50;4989735;28;9172;-71
2023/10/06 00:27:12;;;;;;;;;6.67;6.67;;;;;15.24;77.17;102328.19;4988703;28;9150;-71
2023/10/06 00:29:48;;;;;;;;;6.00;5.00;;;;;15.26;77.24;102326.13;4980653;28;9183;-71
2023/10/06 00:32:27;;;;;;;;;6.67;6.33;;;;;15.23;77.11;102326.50;4956916;28;9341;-71
2023/10/06 00:35:08;;;;;;;;;9.00;6.00;;;;;15.25;77.24;102327.16;4990531;28;9317;-72
2023/10/06 00:37:40;;;;;;;;;7.33;6.00;;;;;15.24;77.27;102335.50;4971093;28;9397;-71
2023/10/06 00:40:10;;;;;;;;;4.00;4.00;;;;;15.24;77.22;102332.78;4936859;28;9283;-71
2023/10/06 00:42:38;;;;;;;;;6.00;6.00;;;;;15.22;77.50;102337.53;4952782;28;9407;-71
2023/10/06 00:45:07;;;;;;;;;4.33;3.67;;;;;15.20;77.55;102340.44;4984379;28;9268;-71
2023/10/06 00:47:38;;;;;;;;;6.33;6.33;;;;;15.21;77.68;102331.28;4975664;28;9388;-72
2023/10/06 00:50:07;;;;;;;;;7.00;6.00;;;;;15.21;77.75;102323.13;4975393;28;9308;-71
2023/10/06 00:52:34;;;;;;;;;7.00;7.00;;;;;15.19;77.50;102313.50;4992171;28;10029;-72
2023/10/06 00:55:05;;;;;;;;;10.67;7.33;;;;;15.18;77.55;102307.22;4991513;28;9476;-71
2023/10/06 00:57:32;;;;;;;;;6.00;6.00;;;;;15.19;77.81;102308.94;4974191;28;9337;-71
2023/10/06 00:59:59;;;;;;;;;5.00;5.00;;;;;15.20;77.65;102310.59;4976116;28;9351;-72
2023/10/06 01:02:26;;;;;;;;;11.00;8.67;;;;;15.17;77.96;102293.88;4956104;28;9528;-72
2023/10/06 01:04:52;;;;;;;;;9.00;7.75;;;;;15.16;77.97;102293.03;4959915;28;9340;-71
2023/10/06 01:07:19;;;;;;;;;11.50;9.50;;;;;15.13;78.00;102298.00;4984017;28;9520;-71
2023/10/06 01:09:56;;;;;;;;;8.00;7.33;;;;;15.15;78.21;102294.06;4991577;28;9386;-71
2023/10/06 01:12:25;;;;;;;;;7.00;7.00;;;;;15.14;78.13;102302.38;4998683;28;9412;-71
2023/10/06 01:15:05;;;;;;;;;7.00;7.00;;;;;15.12;78.47;102308.00;4989168;28;9414;-71
2023/10/06 01:17:32;;;;;;;;;9.75;8.75;;;;;15.09;78.19;102300.22;4974937;28;9574;-71
2023/10/06 01:19:59;;;;;;;;;8.25;8.25;;;;;15.05;78.56;102298.94;4973166;28;9421;-71
2023/10/06 01:22:30;;;;;;;;;12.50;11.00;;;;;15.01;78.64;102284.91;4955698;28;9550;-71
2023/10/06 01:24:58;;;;;;;;;12.75;11.50;;;;;14.93;78.76;102282.28;4974903;28;9447;-71
2023/10/06 01:27:27;;;;;;;;;9.67;9.33;;;;;14.96;79.43;102289.22;4991988;28;9471;-72
2023/10/06 01:32:45;;;;;;;;;11.50;9.50;;;;;14.98;78.90;102290.69;4976760;28;9648;-72
2023/10/06 01:35:13;;;;;;;;;7.25;6.25;;;;;14.98;79.59;102293.41;4990343;28;9888;-71
2023/10/06 01:37:44;;;;;;;;;7.67;7.00;;;;;15.00;79.46;102298.66;4991911;28;9578;-72
2023/10/06 01:40:34;;;;;;;;;6.75;6.75;;;;;14.98;79.52;102298.81;4991038;28;9494;-71
2023/10/06 01:43:09;;;;;;;;;6.50;6.50;;;;;14.96;79.58;102298.19;4965763;28;9496;-71
2023/10/06 01:45:43;;;;;;;;;7.00;7.00;;;;;14.94;79.53;102302.09;4975509;28;9561;-72
2023/10/06 01:50:41;;;;;;;;;12.25;7.75;;;;;14.91;79.60;102306.06;4974456;28;9390;-71
2023/10/06 01:53:10;;;;;;;;;6.50;5.00;;;;;14.91;79.48;102305.19;4991998;28;9571;-71
2023/10/06 01:55:38;;;;;;;;;11.00;8.00;;;;;14.84;79.57;102305.94;4990226;28;9420;-71
2023/10/06 01:58:07;;;;;;;;;10.00;7.50;;;;;14.87;79.63;102293.03;4989440;28;9619;-72
2023/10/06 02:00:35;;;;;;;;;9.75;8.50;;;;;14.84;79.50;102297.81;4989612;28;10294;-71
2023/10/06 02:03:11;;;;;;;;;6.25;6.25;;;;;14.83;79.79;102296.13;4988576;28;9560;-71
2023/10/06 02:05:38;;;;;;;;;6.33;4.67;;;;;14.87;80.00;102287.59;4973303;28;9570;-72
2023/10/06 02:08:09;;;;;;;;;10.75;7.00;;;;;14.83;79.97;102284.47;4991355;28;9314;-71
2023/10/06 02:10:40;;;;;;;;;7.00;7.00;;;;;14.85;79.93;102279.66;4991647;28;9470;-72
2023/10/06 02:13:07;;;;;;;;;8.00;4.00;;;;;14.88;79.69;102281.19;4991485;28;9499;-71
2023/10/06 02:15:33;;;;;;;;;5.00;5.00;;;;;14.86;79.25;102286.78;4973822;28;9445;-72
2023/10/06 02:18:00;;;;;;;;;5.67;5.67;;;;;14.82;79.70;102290.88;4990401;28;9465;-71
2023/10/06 02:22:55;;;;;;;;;5.75;5.00;;;;;14.80;79.68;102279.41;4981972;28;10445;-72
2023/10/06 02:25:22;;;;;;;;;12.00;11.00;;;;;14.74;79.81;102278.25;4991354;28;9499;-72
2023/10/06 02:27:50;;;;;;;;;7.00;7.00;;;;;14.73;79.99;102273.88;4957216;28;9386;-72
2023/10/06 02:30:19;;;;;;;;;8.67;7.00;;;;;14.72;79.74;102280.34;4957167;28;9770;-72
2023/10/06 02:32:46;;;;;;;;;7.00;4.67;;;;;14.69;80.13;102280.69;4990992;28;9337;-71
2023/10/06 02:35:13;;;;;;;;;6.67;4.00;;;;;14.70;79.97;102276.13;4956950;28;9357;-72
2023/10/06 02:37:39;;;;;;;;;4.00;4.00;;;;;14.73;80.13;102273.03;5005697;28;9256;-72
2023/10/06 02:40:17;;;;;;;;;6.00;6.00;;;;;14.65;80.07;102275.84;4986448;28;9244;-71
2023/10/06 02:42:47;;;;;;;;;5.00;3.00;;;;;14.66;80.05;102259.38;4957667;28;9342;-72
2023/10/06 02:45:20;;;;;;;;;4.00;4.00;;;;;14.72;80.10;102252.38;4967640;28;9411;-72
2023/10/06 02:47:47;;;;;;;;;6.00;5.33;;;;;14.70;79.73;102255.25;4981563;28;9311;-72
2023/10/06 02:50:21;;;;;;;;;4.33;4.33;;;;;14.71;79.55;102250.72;4990913;28;9395;-71
2023/10/06 02:52:53;;;;;;;;;8.75;5.50;;;;;14.65;79.40;102257.69;4953420;28;9303;-72
2023/10/06 02:55:20;;;;;;;;;4.33;3.67;;;;;14.62;79.57;102255.34;4965561;23;9565;-69
2023/10/06 02:57:52;;;;;;;;;5.00;4.50;;;;;14.55;79.89;102236.31;4957182;28;9418;-66
2023/10/06 03:03:03;;;;;;;;;6.33;3.00;;;;;14.61;79.80;102240.13;4976041;28;10216;-68
2023/10/06 03:05:33;;;;;;;;;5.75;4.00;;;;;14.63;79.75;102232.69;4949703;28;9361;-67
2023/10/06 03:08:08;;;;;;;;;3.00;3.00;;;;;14.62;79.73;102233.69;4951666;28;9471;-67
2023/10/06 03:10:43;;;;;;;;;3.00;2.00;;;;;14.67;79.88;102225.00;4970919;28;9349;-67
2023/10/06 03:13:31;;;;;;;;;3.00;3.00;;;;;14.70;79.82;102227.31;4971199;28;9088;-68
2023/10/06 03:16:00;;;;;;;;;5.33;5.33;;;;;14.71;79.26;102226.31;4970335;28;9273;-67
2023/10/06 03:18:28;;;;;;;;;4.33;4.00;;;;;14.66;79.56;102226.84;4953579;28;10235;-67
2023/10/06 03:21:05;;;;;;;;;3.00;3.00;;;;;14.68;79.49;102224.81;4948438;28;9359;-69
2023/10/06 03:23:43;;;;;;;;;3.00;3.00;;;;;14.69;79.25;102221.06;4969845;28;9286;-67
2023/10/06 03:26:33;;;;;;;;;5.33;5.00;;;;;14.69;79.07;102239.19;4953173;28;9189;-68
2023/10/06 03:29:02;;;;;;;;;4.00;2.00;;;;;14.65;79.36;102236.03;4941285;28;9263;-67
2023/10/06 03:31:44;;;;;;;;;3.33;3.33;;;;;14.67;79.30;102238.56;4936626;28;9995;-67
2023/10/06 03:34:17;;;;;;;;;5.00;5.00;;;;;14.57;79.75;102236.94;4962332;28;9274;-67
2023/10/06 03:36:53;;;;;;;;;3.00;3.00;;;;;14.59;79.74;102231.38;4970625;28;9375;-67
2023/10/06 03:39:34;;;;;;;;;5.00;5.00;;;;;14.59;79.54;102239.50;4956537;28;9455;-67
2023/10/06 03:42:02;;;;;;;;;4.00;4.00;;;;;14.59;79.92;102247.63;4934301;28;10102;-67
2023/10/06 03:44:30;;;;;;;;;3.67;3.67;;;;;14.58;80.11;102245.91;4943267;28;10205;-67
2023/10/06 03:47:01;;;;;;;;;8.33;6.00;;;;;14.51;80.23;102237.72;4929710;28;9255;-67
2023/10/06 03:49:33;;;;;;;;;9.50;8.50;;;;;14.48;80.34;102234.50;4947464;28;10104;-67
2023/10/06 03:52:00;;;;;;;;;7.50;6.75;;;;;14.52;80.39;102228.56;4959407;28;9473;-67
2023/10/06 03:54:27;;;;;;;;;5.67;5.00;;;;;14.55;80.13;102227.34;4952819;28;9578;-67
2023/10/06 03:56:53;;;;;;;;;8.75;5.50;;;;;14.56;80.50;102232.56;4936952;28;9362;-67
2023/10/06 03:59:21;;;;;;;;;7.33;7.33;;;;;14.51;80.17;102226.03;4969802;28;9553;-67
2023/10/06 04:01:48;;;;;;;;;7.00;7.00;;;;;14.53;80.56;102213.97;4969290;28;9461;-68
2023/10/06 04:04:22;;;;;;;;;9.50;8.00;;;;;14.49;80.23;102203.69;4961971;28;9466;-67
2023/10/06 04:06:49;;;;;;;;;8.00;6.00;;;;;14.46;80.79;102193.19;4967698;28;9537;-67
2023/10/06 04:09:27;;;;;;;;;7.00;6.67;;;;;14.43;80.70;102189.00;4970363;28;9419;-67
2023/10/06 04:12:00;;;;;;;;;8.00;6.00;;;;;14.46;81.32;102190.47;4940235;28;9506;-67
2023/10/06 04:14:31;;;;;;;;;7.00;4.33;;;;;14.43;80.81;102199.00;4955344;28;9581;-67
2023/10/06 04:17:01;;;;;;;;;6.00;4.33;;;;;14.49;80.92;102193.69;4968266;28;9512;-67
2023/10/06 04:19:27;;;;;;;;;4.33;4.33;;;;;14.49;80.83;102187.44;4970982;28;9465;-67
2023/10/06 04:21:54;;;;;;;;;8.00;4.50;;;;;14.52;80.74;102185.19;4970375;28;9471;-67
2023/10/06 04:24:20;;;;;;;;;7.25;7.25;;;;;14.51;80.33;102204.34;4974432;28;10231;-67
2023/10/06 04:26:46;;;;;;;;;8.50;6.75;;;;;14.51;80.33;102212.50;4967197;28;9649;-67
2023/10/06 04:29:13;;;;;;;;;5.75;5.75;;;;;14.48;80.83;102199.28;4967335;28;9567;-67
2023/10/06 04:31:40;;;;;;;;;8.25;7.75;;;;;14.45;80.58;102195.06;4971340;28;9557;-67
2023/10/06 04:34:07;;;;;;;;;6.75;5.50;;;;;14.49;80.69;102187.44;4961803;28;9644;-67
2023/10/06 04:36:33;;;;;;;;;9.00;8.00;;;;;14.40;80.69;102178.53;4981807;28;9426;-67
2023/10/06 04:39:00;;;;;;;;;7.75;5.25;;;;;14.41;80.83;102182.06;4955180;28;9624;-68
2023/10/06 04:41:26;;;;;;;;;6.50;6.50;;;;;14.37;80.98;102181.59;4974171;28;9454;-67
2023/10/06 04:43:53;;;;;;;;;7.75;7.25;;;;;14.36;80.93;102182.66;4958045;28;9672;-67
2023/10/06 04:46:19;;;;;;;;;4.00;3.25;;;;;14.41;81.12;102180.19;4951165;28;9505;-67
2023/10/06 04:48:48;;;;;;;;;9.75;7.00;;;;;14.41;80.96;102185.63;4960111;28;9565;-68
2023/10/06 04:51:14;;;;;;;;;7.25;7.00;;;;;14.39;81.26;102187.69;4964180;28;9583;-67
2023/10/06 04:53:45;;;;;;;;;8.00;8.00;;;;;14.34;81.18;102188.25;4972155;28;9596;-68
2023/10/06 04:56:12;;;;;;;;;10.00;6.00;;;;;14.39;81.29;102190.41;4954284;28;9507;-67
2023/10/06 04:58:38;;;;;;;;;5.50;5.50;;;;;14.39;81.44;102186.84;4969991;28;9570;-67
2023/10/06 05:01:07;;;;;;;;;8.00;6.00;;;;;14.42;81.35;102181.03;4973149;28;9537;-67
2023/10/06 05:03:43;;;;;;;;;5.75;5.75;;;;;14.46;81.03;102179.63;4956523;28;9473;-68
2023/10/06 05:06:15;;;;;;;;;7.00;7.00;;;;;14.44;80.97;102196.09;4970729;28;9525;-67
2023/10/06 05:08:46;;;;;;;;;7.75;7.75;;;;;14.39;81.37;102187.69;4955080;28;9693;-67
2023/10/06 05:11:14;;;;;;;;;10.50;7.75;;;;;14.38;81.43;102187.84;4944482;28;9622;-67
2023/10/06 05:13:41;;;;;;;;;8.50;8.25;;;;;14.40;81.22;102191.25;4967735;28;9708;-68
2023/10/06 05:16:11;;;;;;;;;7.00;5.00;;;;;14.45;81.22;102186.09;4955750;28;9569;-67
2023/10/06 05:18:41;;;;;;;;;6.25;4.00;;;;;14.48;81.31;102178.44;4962476;28;9344;-67
2023/10/06 05:21:08;;;;;;;;;7.50;5.50;;;;;14.48;81.13;102180.31;4959533;28;9491;-67
2023/10/06 05:23:35;;;;;;;;;7.33;6.33;;;;;14.44;81.30;102174.41;4965305;28;9571;-67
2023/10/06 05:26:07;;;;;;;;;9.50;8.00;;;;;14.45;81.22;102167.97;4945198;28;9609;-67
2023/10/06 05:28:37;;;;;;;;;6.50;6.50;;;;;14.45;80.75;102170.69;4948813;28;10282;-67
2023/10/06 05:31:07;;;;;;;;;13.00;7.75;;;;;14.41;81.42;102173.94;4965704;28;9535;-67
2023/10/06 05:33:34;;;;;;;;;6.00;6.00;;;;;14.47;81.75;102175.94;4980898;28;9544;-68
2023/10/06 05:36:11;;;;;;;;;14.50;9.00;;;;;14.42;81.57;102181.03;4960506;28;9612;-67
2023/10/06 05:38:38;;;;;;;;;7.50;7.25;;;;;14.41;81.60;102180.19;4967157;28;9636;-68
2023/10/06 05:41:15;;;;;;;;;9.75;8.00;;;;;14.47;81.56;102184.06;4971879;28;9740;-68
2023/10/06 05:43:41;;;;;;;;;10.50;9.50;;;;;14.48;81.69;102188.44;4973007;28;9649;-67
2023/10/06 05:46:09;;;;;;;;;7.00;7.00;;;;;14.41;81.78;102184.78;4967635;28;9533;-68
2023/10/06 05:48:36;;;;;;;;;12.25;12.25;;;;;14.38;81.84;102185.16;4954746;28;9754;-67
2023/10/06 05:51:08;;;;;;;;;8.25;6.75;;;;;14.45;82.37;102186.09;4963878;28;9839;-67
2023/10/06 05:53:43;;;;;;;;;9.25;7.00;;;;;14.51;81.80;102190.81;4961406;28;9569;-68
2023/10/06 05:56:10;;;;;;;;;8.50;8.50;;;;;14.48;82.01;102183.84;4965735;28;9539;-68
2023/10/06 05:58:37;;;;;;;;;15.50;12.00;;;;;14.42;81.93;102175.63;4953991;28;10453;-68
2023/10/06 06:01:05;;;;;;;;;12.00;11.25;;;;;14.42;82.13;102175.63;4961890;28;9759;-68
2023/10/06 06:03:32;;;;;;;;;9.25;8.50;;;;;14.49;82.40;102176.59;4965054;28;9646;-68
2023/10/06 06:06:08;;;;;;;;;9.25;8.75;;;;;14.48;82.41;102169.47;4966390;28;9580;-68
2023/10/06 06:08:39;;;;;;;;;9.50;8.25;;;;;14.44;82.49;102168.16;4966245;28;9718;-68
2023/10/06 06:11:06;;;;;;;;;9.25;8.25;;;;;14.48;82.71;102159.47;4969842;28;9678;-66
2023/10/06 06:13:36;;;;;;;;;9.50;8.25;;;;;14.52;82.88;102168.09;4966264;28;9645;-68
2023/10/06 06:16:02;;;;;;;;;8.00;8.00;;;;;14.54;82.66;102171.44;4962479;28;9651;-67
2023/10/06 06:18:30;;;;;;;;;9.00;9.00;;;;;14.58;82.61;102172.75;4971790;28;9379;-67
2023/10/06 06:21:00;;;;;;;;;7.75;7.00;;;;;14.51;82.69;102185.41;4971126;28;9638;-68
2023/10/06 06:23:26;;;;;;;;;10.00;9.75;;;;;14.49;82.78;102185.56;4962633;28;9515;-68
2023/10/06 06:25:52;;;;;;;;;11.00;8.50;;;;;14.52;82.59;102177.06;4961774;28;9636;-67
2023/10/06 06:28:21;;;;;;;;;11.25;10.25;;;;;14.50;82.71;102179.13;4969509;28;9561;-68
2023/10/06 06:30:47;;;;;;;;;10.25;9.00;;;;;14.49;83.05;102176.59;4970323;28;9557;-67
2023/10/06 06:33:17;;;;;;;;;10.50;7.50;;;;;14.47;82.85;102178.63;4962949;28;9714;-67
2023/10/06 06:35:44;;;;;;;;;9.50;9.50;;;;;14.50;82.73;102178.28;4972318;28;9582;-68
2023/10/06 06:38:12;;;;;;;;;11.25;10.00;;;;;14.41;82.88;102188.34;4962300;28;9531;-67
2023/10/06 06:40:40;;;;;;;;;15.75;12.75;;;;;14.39;83.08;102184.16;4968955;28;9534;-68
2023/10/06 06:43:09;;;;;;;;;7.25;7.25;;;;;14.42;83.23;102179.19;4943789;28;10586;-68
2023/10/06 06:45:39;;;;;;;;;12.25;8.75;;;;;14.41;83.18;102179.38;4966633;28;9548;-67
2023/10/06 06:48:13;;;;;;;;;8.75;8.25;;;;;14.43;83.25;102177.31;4955486;28;9653;-68
2023/10/06 06:50:42;;;;;;;;;11.25;11.25;;;;;14.42;83.09;102176.50;4961311;28;9625;-68
2023/10/06 06:53:12;;;;;;;;;10.00;10.00;;;;;14.44;83.59;102179.00;4960950;28;9657;-67
2023/10/06 06:55:39;;;;;;;;;11.25;11.25;;;;;14.43;83.21;102171.91;4970594;28;9648;-68
2023/10/06 06:58:11;;;;;;;;;10.75;8.00;;;;;14.40;83.24;102185.81;4953483;28;9714;-68
2023/10/06 07:00:41;;;;;;;;;10.25;10.25;;;;;14.40;83.64;102186.66;4968822;28;9576;-67
2023/10/06 07:03:08;;;;;;;;;13.00;12.00;;;;;14.41;83.65;102191.03;4963464;28;9496;-67
2023/10/06 07:05:35;;;;;;;;;9.75;9.75;;;;;14.48;83.71;102194.69;4963133;28;9711;-67
2023/10/06 07:08:04;;;;;;;;;13.00;12.00;;;;;14.50;83.55;102202.66;4945428;28;9520;-67
2023/10/06 07:10:32;;;;;;;;;8.75;8.00;;;;;14.57;83.54;102211.72;4976090;28;10189;-68
2023/10/06 07:12:58;;;;;;;;;9.00;9.00;;;;;14.59;83.35;102199.69;4952616;28;9626;-68
2023/10/06 07:15:29;;;;;;;;;12.00;10.75;;;;;14.59;83.26;102196.97;4970521;28;10123;-68
2023/10/06 07:17:57;;;;;;;;;8.25;7.25;;;;;14.64;82.82;102204.53;4961969;28;9580;-68
2023/10/06 07:20:27;;;;;;;;;13.00;9.50;;;;;14.67;83.16;102206.03;4962676;28;9684;-68
2023/10/06 07:23:00;;;;;;;;;11.75;10.00;;;;;14.72;82.87;102206.31;4966239;28;9385;-67
2023/10/06 07:25:28;;;;;;;;;11.25;10.00;;;;;14.64;83.34;102204.53;4969722;28;9662;-68
2023/10/06 07:27:57;;;;;;;;;10.50;10.00;;;;;14.65;83.07;102203.50;4970108;28;9544;-68
2023/10/06 07:30:29;;;;;;;;;11.00;11.00;;;;;14.70;83.62;102205.66;4951500;28;9483;-67
2023/10/06 07:32:55;;;;;;;;;7.00;7.00;;;;;14.77;82.97;102206.56;4940893;28;9659;-67
2023/10/06 07:38:26;;;;;;;;;11.00;10.00;;;;;14.85;83.13;102198.34;4947908;28;9495;-67
2023/10/06 07:40:52;;;;;;;;;8.75;8.75;;;;;14.85;83.05;102198.34;4970232;28;9466;-68
2023/10/06 07:43:21;;;;;;;;;9.75;9.50;;;;;14.89;83.76;102190.66;4966639;28;9609;-68
2023/10/06 07:45:48;;;;;;;;;7.67;7.67;;;;;14.99;83.31;102199.31;4948683;28;9617;-68
2023/10/06 07:48:15;;;;;;;;;10.67;10.67;;;;;15.00;82.96;102211.88;4967425;28;9415;-68
2023/10/06 07:50:42;;;;;;;;;9.33;8.00;;;;;15.06;82.77;102198.38;4969972;28;9463;-68
2023/10/06 07:53:09;;;;;;;;;9.00;8.00;;;;;15.10;82.80;102206.97;4963444;28;9443;-68
2023/10/06 07:55:36;;;;;;;;;8.67;8.00;;;;;15.19;82.49;102213.13;4963138;28;9363;-68
2023/10/06 07:58:05;;;;;;;;;12.67;10.00;;;;;15.26;82.41;102217.59;4961183;28;9436;-67
2023/10/06 08:00:32;;;;;;;;;11.33;10.00;;;;;15.27;82.56;102215.72;4965150;28;9389;-67
2023/10/06 08:03:00;;;;;;;;;11.00;9.00;;;;;15.36;82.56;102222.72;4960021;28;10254;-68
2023/10/06 08:05:28;;;;;;;;;7.33;6.33;;;;;15.39;82.71;102224.19;4969604;28;9571;-68
2023/10/06 08:08:00;;;;;;;;;11.33;10.33;;;;;15.39;82.41;102222.31;4955299;28;9362;-68
2023/10/06 08:10:29;;;;;;;;;13.00;11.00;;;;;15.37;82.71;102215.44;4968890;28;9481;-68
2023/10/06 08:13:00;;;;;;;;;6.67;6.67;;;;;15.40;82.95;102215.06;4971704;28;9374;-68
2023/10/06 08:15:28;;;;;;;;;9.33;9.00;;;;;15.36;83.12;102219.19;4970210;28;9279;-67
2023/10/06 08:17:55;;;;;;;;;7.00;7.00;;;;;15.32;83.71;102221.44;4969840;28;9299;-68
2023/10/06 08:20:24;;;;;;;;;7.33;7.33;;;;;15.36;83.69;102220.03;4955595;28;9940;-67
2023/10/06 08:22:51;;;;;;;;;8.33;8.33;;;;;15.41;83.46;102235.72;4969928;28;9101;-68
2023/10/06 08:25:19;;;;;;;;;7.33;7.33;;;;;15.43;83.26;102230.94;4969585;28;9256;-68
2023/10/06 08:27:48;;;;;;;;;9.00;8.00;;;;;15.43;83.40;102239.06;4970799;28;9174;-67
2023/10/06 08:30:16;;;;;;;;;12.00;12.00;;;;;15.43;83.76;102233.63;4962108;28;9434;-67
2023/10/06 08:32:44;;;;;;;;;11.33;10.67;;;;;15.47;83.42;102224.06;4964723;28;9469;-67
2023/10/06 08:35:15;;;;;;;;;7.67;7.67;;;;;15.50;83.47;102218.28;4968869;28;9326;-68
2023/10/06 08:37:43;;;;;;;;;5.67;5.67;;;;;15.59;83.53;102225.25;4971914;28;9259;-67
2023/10/06 08:40:17;;;;;;;;;8.33;6.00;;;;;15.61;83.25;102235.94;4970525;28;9202;-67
2023/10/06 08:42:46;;;;;;;;;6.67;6.67;;;;;15.64;82.91;102230.09;4966688;28;10209;-68
2023/10/06 08:45:20;;;;;;;;;9.33;9.33;;;;;15.64;82.92;102241.81;4935377;28;9266;-68
2023/10/06 08:47:53;;;;;;;;;11.00;9.33;;;;;15.61;83.07;102239.47;4967765;28;9350;-68
2023/10/06 08:50:23;;;;;;;;;7.33;7.33;;;;;15.58;83.64;102229.00;4973294;28;9246;-68
2023/10/06 08:52:51;;;;;;;;;6.33;6.33;;;;;15.71;83.41;102229.16;4955449;28;10018;-68
2023/10/06 08:55:22;;;;;;;;;12.00;10.67;;;;;15.72;83.05;102233.56;4989034;23;9276;-72
2023/10/06 08:57:50;;;;;;;;;8.00;7.33;;;;;15.73;82.81;102223.56;5029175;28;9461;-72
2023/10/06 09:00:24;;;;;;;;;14.00;11.00;;;;;15.72;83.50;102236.28;5024147;28;9254;-74
2023/10/06 09:02:54;;;;;;;;;12.33;8.33;;;;;15.67;83.56;102235.16;5031085;28;9201;-72
2023/10/06 09:05:22;;;;;;;;;5.67;5.67;;;;;15.77;83.51;102230.28;5029741;28;9177;-72
2023/10/06 09:08:05;;;;;;;;;11.00;8.67;;;;;15.77;83.20;102241.97;5031026;28;9294;-73
2023/10/06 09:10:55;;;;;;;;;10.00;7.00;;;;;15.80;83.29;102235.31;5032385;28;9299;-73
2023/10/06 09:13:22;;;;;;;;;11.33;9.67;;;;;15.82;83.29;102234.06;5008565;28;9189;-72
2023/10/06 09:15:56;;;;;;;;;6.00;6.00;;;;;15.91;83.15;102237.50;5023858;28;9446;-72
2023/10/06 09:18:27;;;;;;;;;9.00;7.00;;;;;15.93;83.51;102243.56;5027067;28;9196;-73
2023/10/06 09:20:54;;;;;;;;;16.00;12.00;;;;;15.92;83.08;102239.19;5034539;28;9166;-73
2023/10/06 09:23:32;;;;;;;;;8.67;7.33;;;;;16.01;83.33;102234.47;5021393;28;9378;-73
2023/10/06 09:26:00;;;;;;;;;7.67;7.00;;;;;16.02;83.45;102233.41;5031026;28;9507;-73
2023/10/06 09:28:28;;;;;;;;;6.33;6.33;;;;;16.08;83.28;102232.59;5030818;28;9336;-73
2023/10/06 09:31:02;;;;;;;;;15.00;8.33;;;;;16.17;82.98;102231.44;5034120;28;9285;-72
2023/10/06 09:33:41;;;;;;;;;7.00;7.00;;;;;16.22;82.74;102237.13;5003347;28;9243;-73
2023/10/06 09:36:21;;;;;;;;;11.67;11.67;;;;;16.17;82.88;102234.16;5020081;28;9247;-73
2023/10/06 09:39:13;;;;;;;;;10.00;6.67;;;;;16.16;83.09;102229.75;5023021;28;10059;-73
2023/10/06 09:41:41;;;;;;;;;7.00;7.00;;;;;16.13;83.54;102219.31;5028128;28;9130;-73
2023/10/06 09:44:10;;;;;;;;;7.33;6.00;;;;;16.25;83.32;102223.16;5024082;28;9069;-73
2023/10/06 09:46:41;;;;;;;;;12.00;9.00;;;;;16.31;82.88;102222.34;5031591;28;9670;-73
2023/10/06 09:49:12;;;;;;;;;10.67;8.00;;;;;16.30;83.02;102222.56;5032206;28;9451;-73
2023/10/06 09:51:41;;;;;;;;;9.00;7.67;;;;;16.16;84.15;102221.59;5014118;28;9274;-72
2023/10/06 09:54:11;;;;;;;;;6.33;6.33;;;;;16.30;84.06;102193.50;5011863;28;9241;-72
2023/10/06 09:56:41;;;;;;;;;7.00;6.00;;;;;16.32;83.43;102191.41;5009987;28;9014;-72
2023/10/06 09:59:12;;;;;;;;;5.33;5.33;;;;;16.46;83.27;102195.06;5019823;28;9110;-73
2023/10/06 10:01:42;;;;;;;;;7.67;6.33;;;;;16.47;83.07;102196.72;5026352;28;9160;-72
2023/10/06 10:04:12;;;;;;;;;8.67;7.33;;;;;16.60;82.87;102206.84;5030415;28;9173;-71
2023/10/06 10:06:43;;;;;;;;;3.25;3.00;;;;;16.74;82.32;102208.63;5022868;28;8996;-72
2023/10/06 10:09:17;;;;;;;;;5.33;5.33;;;;;16.82;81.96;102204.06;5011515;28;8936;-72
2023/10/06 10:11:52;;;;;;;;;7.00;6.00;;;;;16.82;82.19;102204.91;5010058;28;9000;-72
2023/10/06 10:14:43;;;;;;;;;6.00;3.67;;;;;16.84;82.29;102212.84;5009800;28;8910;-72
2023/10/06 10:17:35;;;;;;;;;7.50;3.25;;;;;16.91;82.27;102206.41;5011142;28;8922;-72
2023/10/06 10:20:06;;;;;;;;;4.75;4.25;;;;;16.92;81.68;102209.94;5021154;28;8833;-72
2023/10/06 10:22:33;;;;;;;;;3.00;3.00;;;;;16.96;81.81;102206.63;5028905;28;8959;-73
2023/10/06 10:25:01;;;;;;;;;6.00;6.00;;;;;16.95;81.61;102210.38;5025516;28;8926;-73
2023/10/06 10:27:30;;;;;;;;;6.00;6.00;;;;;16.98;81.75;102196.38;5026982;28;8949;-72
2023/10/06 10:30:07;;;;;;;;;3.00;3.00;;;;;17.00;81.55;102205.16;5026253;28;8962;-72
2023/10/06 10:32:34;;;;;;;;;9.25;6.75;;;;;17.02;81.25;102199.53;5028180;28;9524;-74
2023/10/06 10:35:14;;;;;;;;;7.75;6.50;;;;;17.01;81.71;102211.44;5026178;28;8861;-73
2023/10/06 10:38:02;;;;;;;;;4.00;4.00;;;;;17.08;81.44;102197.88;5027763;28;8832;-73
2023/10/06 10:40:48;;;;;;;;;6.00;4.50;;;;;17.02;81.54;102196.81;5027053;28;8821;-73
2023/10/06 10:43:15;;;;;;;;;5.00;4.00;;;;;17.03;81.58;102190.34;5025225;28;8821;-73
2023/10/06 10:45:45;;;;;;;;;3.00;3.00;;;;;17.07;81.86;102191.59;5025896;28;8864;-72
2023/10/06 10:48:14;;;;;;;;;7.50;4.50;;;;;17.05;81.88;102199.13;5025311;28;8840;-72
2023/10/06 10:50:53;;;;;;;;;4.75;4.75;;;;;17.02;82.14;102189.50;5029265;28;8841;-73
2023/10/06 10:53:20;;;;;;;;;4.75;4.25;;;;;17.05;81.97;102183.66;5022744;28;8866;-71
2023/10/06 10:55:48;;;;;;;;;4.50;4.00;;;;;17.09;81.85;102181.34;5030278;28;8829;-72
2023/10/06 10:58:48;;;;;;;;;5.25;5.00;;;;;17.14;81.51;102183.47;5028576;28;8845;-73
2023/10/06 11:01:42;;;;;;;;;7.50;6.00;;;;;17.13;81.64;102176.31;5029469;28;8828;-72
2023/10/06 11:06:55;;;;;;;;;5.00;5.00;;;;;17.33;81.15;102168.22;5029750;28;9550;-72
2023/10/06 11:09:30;;;;;;;;;6.00;6.00;;;;;17.34;81.22;102173.47;5026656;28;8844;-72
2023/10/06 11:11:59;;;;;;;;;5.75;5.75;;;;;17.44;80.87;102173.06;5029977;28;8816;-72
2023/10/06 11:14:49;;;;;;;;;6.75;6.75;;;;;17.51;80.60;102176.63;5017773;28;8832;-71
2023/10/06 11:17:26;;;;;;;;;4.25;3.25;;;;;17.64;79.99;102164.91;5028310;28;9551;-71
2023/10/06 11:20:33;;;;;;;;;5.00;5.00;;;;;17.66;79.54;102169.09;5014463;28;9175;-71
2023/10/06 11:23:00;;;;;;;;;4.67;4.67;;;;;17.71;79.48;102163.88;5040708;28;8832;-72
2023/10/06 11:25:29;;;;;;;;;8.00;6.50;;;;;17.72;79.09;102164.69;5023208;28;9126;-72
2023/10/06 11:28:08;;;;;;;;;5.00;5.00;;;;;17.75;78.57;102156.16;5023545;28;8848;-72
2023/10/06 11:30:42;;;;;;;;;6.50;4.75;;;;;17.74;78.49;102163.47;5018505;28;8832;-72
2023/10/06 11:33:11;;;;;;;;;5.25;4.75;;;;;17.65;78.51;102167.41;5023992;28;8825;-72
2023/10/06 11:35:40;;;;;;;;;4.50;4.25;;;;;17.81;78.02;102158.03;5026487;28;9559;-71
2023/10/06 11:38:11;;;;;;;;;3.25;3.25;;;;;17.92;77.96;102172.91;5026621;28;8939;-70
2023/10/06 11:40:37;;;;;;;;;7.75;6.75;;;;;17.92;77.89;102156.56;5026480;28;9598;-70
2023/10/06 11:43:12;;;;;;;;;4.50;4.25;;;;;18.01;77.43;102158.84;5025372;28;8824;-70
2023/10/06 11:45:41;;;;;;;;;5.00;5.00;;;;;18.06;77.37;102162.81;5020096;28;8856;-70
2023/10/06 11:48:35;;;;;;;;;6.75;6.75;;;;;18.16;77.06;102155.88;5023186;28;8933;-70
2023/10/06 11:51:08;;;;;;;;;5.00;4.25;;;;;18.20;77.09;102146.25;5023278;28;8844;-70
2023/10/06 11:53:36;;;;;;;;;4.50;2.50;;;;;18.21;77.37;102150.63;5021946;28;8846;-70
2023/10/06 11:56:15;;;;;;;;;5.75;3.75;;;;;18.19;76.90;102158.19;5021272;28;9483;-70
2023/10/06 11:58:44;;;;;;;;;6.50;5.25;;;;;18.25;76.48;102151.03;5021823;28;8840;-70
2023/10/06 12:01:32;;;;;;;;;7.00;5.50;;;;;18.27;76.71;102148.94;5015255;28;8925;-70
2023/10/06 12:04:00;;;;;;;;;4.00;3.00;;;;;18.37;76.32;102153.97;5022050;28;8982;-69
2023/10/06 12:06:39;;;;;;;;;4.00;2.50;;;;;18.45;76.23;102143.66;5001558;28;8899;-69